Terminal Aerodrome Forecast
Issued by NWS Kansas City/Pleasant Hill, MO

Current Version | Previous Version | Text Only | Print | Product List | Glossary On
Versions: 1 2 3 4 5 6 7 8 9 10 11 12
000
FTUS43 KEAX 261100
TAFMCI
TAF
KMCI 261120Z 2612/2712 21010KT P6SM BKN200
     FM270000 VRB06KT P6SM SCT045 BKN150
     FM270500 35007KT P6SM BKN150=

USA.gov is the U.S. government's official web portal to all federal, state and local government web resources and services.